AirNav   TITAN Aviation Fuels
 
 877 users online  

9WN5 Lodi Lakeland Airport
Lodi, Wisconsin, USA

GOING TO LODI?


FAA INFORMATION EFFECTIVE 26 JANUARY 2023

Location

FAA Identifier: 9WN5
Lat/Long: 43-19-59.9580N 089-31-15.4330W
43-19.999300N 089-31.257217W
43.3333217,-89.5209536
(estimated)
Elevation: 844 ft. / 257.3 m (surveyed)
Variation: 00E (1985)
From city: 1 mile NE of LODI, WI
Time zone: UTC -6 (UTC -5 during Daylight Saving Time)
Zip code: 53555

Airport Operations

Airport use: Private use. Permission required prior to landing
Activation date: 02/1957
Control tower: no
ARTCC: CHICAGO CENTER
FSS: GREEN BAY FLIGHT SERVICE STATION
Attendance: UNATNDD
Wind indicator: yes
Segmented circle: no

Airport Communications

WX AWOS-3 at C29 (13 nm S): 118.675 (608-833-1686)
WX ASOS at MSN (14 nm SE): PHONE 608-249-0615
WX AWOS-3 at DLL (16 nm NW): 118.325 (608-356-1071)

Nearby radio navigation aids

VOR radial/distance  VOR name  Freq  Var
MSNr322/13.8MADISON VORTAC108.6003E
DLLr138/16.8DELLS VORTAC117.0003E

 
NDB name  Hdg/Dist  Freq  Var  ID
ROCK RIVER286/36.137101WRYV .-. -.-- ...-

Airport Services

Airframe service: NONE
Powerplant service: NONE
Bottled oxygen: NONE
Bulk oxygen: NONE

Runway Information

Runway 9/27

Dimensions: 1875 x 105 ft. / 572 x 32 m
Surface: turf, in good condition
RUNWAY 9  RUNWAY 27
Traffic pattern: leftleft
Runway end identifier lights: nono
Obstructions: 4 ft. brush, 75 ft. left of centerline4 ft. brush, 70 ft. left of centerline

Airport Ownership and Management from official FAA records

Ownership: Publicly-owned
Owner: LODI LAKELAND AERO CLUB
N1405 LINDSEY ROAD
LODI, WI 53555
Phone 608-512-6270
LEASEE. OWNER IS TOWNSHIP OF LODI.
Manager: DAN SIMPSON
1302 MANCHESTER W
WAUNAKEE, WI 53597
Phone 608-512-6270
EMAIL ADDRESS: JERRY.CARNCROSS@GMAIL.COM (ALL LOWER CASE)

Airport Operational Statistics

Aircraft based on the field: 15
Single engine airplanes: 15
    
Aircraft operations: avg 20/day *
69% local general aviation
30% transient general aviation
<1% air taxi
<1% military
* for 12-month period ending 10 July 1987

Additional Remarks

RY NOT PLOWED WINTER MONTHS. ARPT CLSD WHEN RY IS SNOW COVERED.
8-20 FT BRUSH ALONG N SIDE OF RY.
20 FT BRUSH & TREES, 100 FT LEFT OF RWY 27 CENTERLINE.
12 FT BRUSH, 70 FT RIGHT OF RWY 27 CENTERLINE.
FOR CD CTC CHICAGO ARTCC AT 630-906-8921.

Instrument Procedures

There are no published instrument procedures at 9WN5.

Some nearby airports with instrument procedures:

91C - Sauk/Prairie Airport (10 nm W)
C29 - Middleton Municipal Airport - Morey Field (13 nm S)
C47 - Portage Municipal Airport (14 nm N)
KMSN - Dane County Regional Airport-Truax Field (14 nm SE)
KDLL - Baraboo/Wisconsin Dells Regional Airport (16 nm NW)
 
Loc | Ops | Rwys | IFR | FBO | Links
Com | Nav | Svcs | Stats | Notes
Area around 9WN5 (Lodi Lakeland Airport)
 
Road maps at: MapQuest Bing Google
 
Aerial photo
WARNING: Photo may not be current or correct
Aerial photo of 9WN5 (Lodi Lakeland Airport)
Do you have a better or more recent aerial photo of Lodi Lakeland Airport that you would like to share? If so, please send us your photo.

 
Sectional chart

 
Airport distance calculator
Flying to Lodi Lakeland Airport? Find the distance to fly.

From to 9WN5

Sunrise and sunset
Times for 27-Jan-2023
 Local
(UTC-6)
 Zulu
(UTC)
Morning civil twilight06:4912:49
Sunrise07:2013:20
Sunset17:0223:02
Evening civil twilight17:3323:33

Current date and time
Zulu (UTC)  27-Jan-2023 12:45:56
Local (UTC-6)  27-Jan-2023 06:45:56
 
METAR
KC29 
13nm S 
271235Z AUTO 17010G17KT 10SM SCT070 OVC080 M08/M10 A2968 RMK AO1 T10801105
KMSN 
14nm SE 
271228Z 18012KT 10SM -SN BKN055 OVC080 M08/M12 A2969 RMK AO2 SNB27 P0000 T10831122
KDLL 
16nm NW 
271235Z AUTO 20013KT 1 1/4SM -SN SCT023 BKN030 OVC037 M07/M08 A2961 RMK AO2 T10681083
KC35 
23nm NW 
271235Z AUTO 20010KT 4SM SCT016 BKN034 OVC049 M07/M10 A2963 RMK AO2 T10751096 PWINO
TAF
KMSN 
14nm SE 
271127Z 2712/2812 18014G22KT P6SM VCSH OVC080 FM271300 19016G26KT 2SM -SN BR OVC045 FM271700 21015G27KT 1SM -SN BR OVC013 FM271800 22015G25KT P6SM -SN OVC011 FM272200 28014G24KT P6SM VCSH BKN022 FM280900 29005KT P6SM BKN060
NOTAMs
Click for the latest NOTAMs
NOTAMs are issued by the DoD/FAA and will open in a separate window not controlled by AirNav.

 

 
 

Would you like to see your business listed on this page?

 If your business provides an interesting product or service to pilots, flight crews, aircraft, or users of the Lodi Lakeland Airport, you should consider listing it here.  To start the listing process, click on the button below
 
Add a business
 

Other Pages about Lodi Lakeland Airport

Update a link
 
Copyright © AirNav, LLC. All rights reserved. Privacy Policy  Contact